Time;durP1;ratioP1;P1;durP2;ratioP2;P2;SDS_P1;SDS_P2;PMS_P1;PMS_P2;Temp;Humidity;BMP_temperature;BMP_pressure;BME280_temperature;BME280_humidity;BME280_pressure;Samples;Min_cycle;Max_cycle;Signal;HPM_P1;HPM_P2
2022/04/14 00:01:24;;;;;;;28.75;16.27;;;10.80;99.90;;;;;;4861861;29;20482;-88
2022/04/14 00:03:50;;;;;;;28.15;15.68;;;10.80;99.90;;;;;;4845569;29;20156;-88
2022/04/14 00:06:15;;;;;;;26.20;14.25;;;10.70;99.90;;;;;;4864889;29;20611;-88
2022/04/14 00:08:41;;;;;;;30.15;15.95;;;10.70;99.90;;;;;;4844402;29;20460;-88
2022/04/14 00:11:08;;;;;;;23.63;13.57;;;10.60;99.90;;;;;;4860204;29;20048;-88
2022/04/14 00:13:34;;;;;;;27.20;14.80;;;10.50;99.90;;;;;;4861675;29;20046;-88
2022/04/14 00:15:59;;;;;;;27.70;15.02;;;10.40;99.90;;;;;;4864222;29;20049;-88
2022/04/14 00:18:25;;;;;;;26.58;14.63;;;10.50;99.90;;;;;;4860885;29;20459;-88
2022/04/14 00:20:51;;;;;;;27.20;14.43;;;10.40;99.90;;;;;;4861256;29;20049;-88
2022/04/14 00:23:16;;;;;;;24.10;13.93;;;10.40;99.90;;;;;;4844956;29;20069;-88
2022/04/14 00:25:42;;;;;;;25.52;14.27;;;10.40;99.90;;;;;;4859992;29;20109;-88
2022/04/14 00:28:07;;;;;;;25.38;13.88;;;10.30;99.90;;;;;;4844696;29;20050;-88
2022/04/14 00:30:33;;;;;;;27.52;15.07;;;10.30;99.90;;;;;;4861188;29;20057;-88
2022/04/14 00:32:58;;;;;;;29.02;15.32;;;10.30;99.90;;;;;;4843313;29;20065;-88
2022/04/14 00:35:24;;;;;;;28.20;14.82;;;10.20;99.90;;;;;;4861477;29;20127;-88
2022/04/14 00:37:49;;;;;;;29.75;14.65;;;10.20;99.90;;;;;;4844164;29;20049;-88
2022/04/14 00:40:15;;;;;;;26.85;13.82;;;10.10;99.90;;;;;;4860149;29;20471;-88
2022/04/14 00:42:41;;;;;;;26.35;13.73;;;10.00;99.90;;;;;;4860929;29;20045;-88
2022/04/14 00:45:08;;;;;;;26.00;13.40;;;10.00;99.90;;;;;;4861274;29;20469;-88
2022/04/14 00:47:38;;;;;;;22.98;13.35;;;10.00;99.90;;;;;;4843379;29;20082;-88
2022/04/14 00:50:05;;;;;;;25.10;13.50;;;10.00;99.90;;;;;;4861045;29;20509;-88
2022/04/14 00:52:30;;;;;;;23.63;13.10;;;10.00;99.90;;;;;;4843532;29;20049;-88
2022/04/14 00:54:56;;;;;;;25.58;13.65;;;9.90;99.90;;;;;;4861244;29;20057;-88
2022/04/14 00:57:22;;;;;;;22.92;13.57;;;9.90;99.90;;;;;;4881982;29;20039;-88
2022/04/14 00:59:48;;;;;;;27.83;13.27;;;9.90;99.90;;;;;;4862444;29;20058;-88
2022/04/14 01:02:13;;;;;;;24.48;13.25;;;9.90;99.90;;;;;;4863113;29;20065;-89
2022/04/14 01:04:40;;;;;;;25.15;14.60;;;9.90;99.90;;;;;;4847018;29;20072;-88
2022/04/14 01:07:07;;;;;;;25.90;14.50;;;9.90;99.90;;;;;;4865370;29;20049;-89
2022/04/14 01:09:33;;;;;;;28.35;14.95;;;9.90;99.90;;;;;;4866371;29;20049;-88
2022/04/14 01:11:59;;;;;;;26.08;15.25;;;9.90;99.90;;;;;;4860639;29;20083;-88
2022/04/14 01:14:27;;;;;;;29.15;15.07;;;9.90;99.90;;;;;;4843567;29;20105;-88
2022/04/14 01:16:54;;;;;;;28.65;15.20;;;9.80;99.90;;;;;;4843805;29;20091;-88
2022/04/14 01:19:19;;;;;;;25.23;14.48;;;9.80;99.90;;;;;;4844117;29;20102;-88
2022/04/14 01:22:01;;;;;;;26.92;14.73;;;9.80;99.90;;;;;;4860000;29;20647;-88
2022/04/14 01:24:26;;;;;;;25.77;15.02;;;9.70;99.90;;;;;;4848187;29;20065;-88
2022/04/14 01:26:54;;;;;;;24.92;14.77;;;9.70;99.90;;;;;;4847715;29;20045;-88
2022/04/14 01:29:26;;;;;;;27.80;15.70;;;9.70;99.90;;;;;;4863568;29;20081;-88
2022/04/14 01:31:53;;;;;;;26.63;15.45;;;9.70;99.90;;;;;;4863965;29;20124;-88
2022/04/14 01:34:18;;;;;;;30.13;16.88;;;9.60;99.90;;;;;;4862977;29;20068;-88
2022/04/14 01:38:32;;;;;;;30.63;16.23;;;9.60;99.90;;;;;;5110193;27;20105;-88
2022/04/14 01:40:58;;;;;;;27.88;15.18;;;9.60;99.90;;;;;;5090009;28;20556;-88
2022/04/14 01:43:23;;;;;;;28.33;16.25;;;9.70;99.90;;;;;;5071431;28;20123;-88
2022/04/14 01:45:50;;;;;;;27.58;15.38;;;9.30;99.90;;;;;;5090169;28;20036;-88
2022/04/14 01:48:28;;;;;;;24.98;14.73;;;9.30;99.90;;;;;;5072170;28;20067;-88
2022/04/14 01:50:54;;;;;;;26.42;15.80;;;9.40;99.90;;;;;;5089113;28;20520;-88
2022/04/14 01:53:23;;;;;;;32.53;16.90;;;9.30;99.90;;;;;;5071975;28;20040;-88
2022/04/14 01:55:48;;;;;;;25.48;15.18;;;9.30;99.90;;;;;;5088954;28;20040;-88
2022/04/14 01:58:14;;;;;;;28.00;15.52;;;9.20;99.90;;;;;;5093878;28;20556;-88
2022/04/14 02:00:55;;;;;;;30.25;16.25;;;9.10;99.90;;;;;;5071828;28;20557;-89
2022/04/14 02:03:36;;;;;;;30.35;17.90;;;9.00;99.90;;;;;;5088618;28;20076;-88
2022/04/14 02:06:14;;;;;;;31.55;16.45;;;9.20;99.90;;;;;;5088888;28;20032;-88
2022/04/14 02:08:46;;;;;;;37.35;19.00;;;9.80;99.90;;;;;;5092812;28;20090;-89
2022/04/14 02:11:23;;;;;;;30.63;17.40;;;8.80;99.90;;;;;;5071463;28;20055;-88
2022/04/14 02:13:49;;;;;;;30.08;17.10;;;9.10;99.90;;;;;;5089668;28;20093;-88
2022/04/14 02:16:15;;;;;;;32.60;16.63;;;9.00;99.90;;;;;;5089618;28;20036;-88
2022/04/14 02:18:50;;;;;;;31.02;18.13;;;9.10;99.90;;;;;;5089071;28;20094;-88
2022/04/14 02:21:15;;;;;;;30.92;17.88;;;9.00;99.90;;;;;;5089905;28;20090;-89
2022/04/14 02:23:47;;;;;;;35.92;19.00;;;8.90;99.90;;;;;;5089690;28;20044;-88
2022/04/14 02:26:22;;;;;;;28.63;17.85;;;8.90;99.90;;;;;;5089719;28;20068;-88
2022/04/14 02:28:48;;;;;;;33.63;17.45;;;9.20;99.90;;;;;;5071079;28;20127;-89
2022/04/14 02:31:13;;;;;;;32.97;17.98;;;9.20;99.90;;;;;;5088711;28;20202;-88
2022/04/14 02:33:51;;;;;;;32.85;18.70;;;8.70;99.90;;;;;;5089245;28;20050;-88
2022/04/14 02:36:17;;;;;;;36.83;19.27;;;8.70;99.90;;;;;;5066894;28;20116;-89
2022/04/14 02:38:43;;;;;;;37.47;22.10;;;8.80;99.90;;;;;;5066009;28;20052;-88
2022/04/14 02:41:21;;;;;;;37.40;20.55;;;8.70;99.90;;;;;;5067660;28;20044;-89
2022/04/14 02:43:53;;;;;;;33.65;20.00;;;8.70;99.90;;;;;;5067392;28;20045;-89
2022/04/14 02:46:33;;;;;;;37.28;21.40;;;7.70;99.90;;;;;;5068040;28;20095;-89
2022/04/14 02:48:59;;;;;;;35.28;19.98;;;8.50;99.90;;;;;;5055464;28;20052;-89
2022/04/14 02:51:25;;;;;;;31.13;18.45;;;8.60;99.90;;;;;;5055262;28;20084;-89
2022/04/14 02:53:59;;;;;;;36.80;19.50;;;8.60;99.90;;;;;;5054831;28;20041;-89
2022/04/14 02:56:25;;;;;;;42.78;22.90;;;9.10;99.90;;;;;;5055677;28;20041;-89
2022/04/14 02:58:51;;;;;;;40.85;21.00;;;8.70;99.90;;;;;;5055311;28;20041;-89
2022/04/14 03:01:16;;;;;;;40.15;21.70;;;8.40;99.90;;;;;;5053571;28;20045;-88
2022/04/14 03:03:47;;;;;;;37.88;22.42;;;8.60;99.90;;;;;;5054180;28;20500;-89
2022/04/14 03:06:16;;;;;;;46.28;23.67;;;8.60;99.90;;;;;;5054756;28;20091;-89
2022/04/14 03:08:41;;;;;;;46.45;23.30;;;8.70;99.90;;;;;;5054858;28;20647;-89
2022/04/14 03:11:08;;;;;;;42.53;23.40;;;8.60;99.90;;;;;;5054545;28;20041;-89
2022/04/14 03:13:34;;;;;;;45.47;24.10;;;9.70;99.90;;;;;;5056170;28;20565;-89
2022/04/14 03:16:13;;;;;;;54.67;28.00;;;8.80;99.90;;;;;;5055111;28;20040;-90
2022/04/14 03:18:48;;;;;;;49.78;27.15;;;8.70;99.90;;;;;;5053279;28;20049;-89
2022/04/14 03:21:33;;;;;;;54.60;27.85;;;9.60;99.90;;;;;;5067677;22;20049;-89
2022/04/14 03:24:03;;;;;;;55.53;28.80;;;8.90;99.90;;;;;;5056253;28;20080;-89
2022/04/14 03:26:29;;;;;;;53.17;28.05;;;9.00;99.90;;;;;;5075138;28;20040;-89
2022/04/14 03:28:54;;;;;;;61.42;33.20;;;8.80;99.90;;;;;;5055251;28;20051;-89
2022/04/14 03:31:20;;;;;;;52.63;28.17;;;9.10;99.90;;;;;;5074652;28;20397;-89
2022/04/14 03:33:46;;;;;;;54.20;29.33;;;9.20;99.90;;;;;;5074992;28;20048;-89
2022/04/14 03:36:17;;;;;;;57.78;29.52;;;9.00;99.90;;;;;;5055991;28;20052;-89
2022/04/14 03:38:52;;;;;;;64.97;30.73;;;9.00;99.90;;;;;;5074030;28;20503;-89
2022/04/14 03:41:18;;;;;;;53.90;29.25;;;9.00;99.90;;;;;;5055889;28;20076;-89
2022/04/14 03:43:44;;;;;;;53.25;29.92;;;9.10;99.90;;;;;;5056859;28;20076;-89
2022/04/14 03:46:15;;;;;;;58.10;30.98;;;9.30;99.90;;;;;;5075033;28;20045;-89
2022/04/14 03:48:58;;;;;;;58.88;32.85;;;9.30;99.90;;;;;;5073601;28;20049;-89
2022/04/14 03:51:30;;;;;;;64.13;31.60;;;9.00;99.90;;;;;;5077587;28;20510;-89
2022/04/14 03:54:02;;;;;;;65.20;31.92;;;9.40;99.90;;;;;;5073842;28;20711;-89
2022/04/14 03:56:37;;;;;;;73.65;33.20;;;9.70;99.90;;;;;;5057037;28;20492;-89
2022/04/14 03:59:03;;;;;;;62.05;30.98;;;8.80;99.90;;;;;;5066771;28;20087;-89
2022/04/14 04:01:29;;;;;;;57.92;31.10;;;9.20;99.90;;;;;;5084221;28;20028;-89
2022/04/14 04:04:03;;;;;;;62.35;30.98;;;8.90;99.90;;;;;;5073866;28;20048;-89
2022/04/14 04:06:41;;;;;;;60.97;31.45;;;9.10;99.90;;;;;;5052352;28;20412;-89
2022/04/14 04:09:10;;;;;;;63.15;33.17;;;8.90;99.90;;;;;;5076205;28;20484;-89
2022/04/14 04:11:51;;;;;;;63.95;32.15;;;8.90;99.90;;;;;;5074635;28;20052;-89
2022/04/14 04:14:26;;;;;;;71.00;33.70;;;8.90;99.90;;;;;;5056574;28;20444;-89
2022/04/14 04:17:06;;;;;;;66.97;33.72;;;8.80;99.90;;;;;;5073960;28;20526;-89
2022/04/14 04:19:32;;;;;;;64.47;33.38;;;8.80;99.90;;;;;;5074123;28;20070;-89
2022/04/14 04:21:58;;;;;;;59.88;31.23;;;8.90;99.90;;;;;;5055180;28;20518;-89
2022/04/14 04:24:24;;;;;;;67.85;33.42;;;9.00;99.90;;;;;;5055238;28;20114;-88
2022/04/14 04:26:50;;;;;;;67.78;33.40;;;8.90;99.90;;;;;;5055639;28;20076;-89
2022/04/14 04:29:15;;;;;;;64.57;33.63;;;9.70;99.90;;;;;;5055915;28;20080;-89
2022/04/14 04:31:41;;;;;;;61.78;32.97;;;8.90;99.90;;;;;;5055443;28;20070;-89
2022/04/14 04:34:07;;;;;;;66.93;33.95;;;9.00;99.90;;;;;;5055640;28;20061;-89
2022/04/14 04:36:32;;;;;;;72.10;35.75;;;9.30;99.90;;;;;;5073591;28;20557;-89
2022/04/14 04:39:01;;;;;;;71.38;36.13;;;8.90;99.90;;;;;;5054646;28;20506;-88
2022/04/14 04:41:27;;;;;;;79.75;37.17;;;9.00;99.90;;;;;;5055864;28;20040;-89
2022/04/14 04:44:05;;;;;;;79.78;37.42;;;9.40;99.90;;;;;;5053102;28;20514;-89
2022/04/14 04:46:31;;;;;;;77.82;37.30;;;8.90;99.90;;;;;;5054536;28;20044;-89
2022/04/14 04:48:57;;;;;;;65.60;35.42;;;8.60;99.90;;;;;;5072925;28;20131;-89
2022/04/14 04:51:24;;;;;;;68.97;35.97;;;9.30;99.90;;;;;;5055500;28;20139;-89
2022/04/14 04:53:53;;;;;;;69.50;35.58;;;10.30;99.90;;;;;;5055887;28;20063;-89
2022/04/14 04:56:19;;;;;;;70.72;35.67;;;8.70;99.90;;;;;;5073309;28;20041;-89
2022/04/14 04:58:47;;;;;;;77.75;37.05;;;9.20;99.90;;;;;;5071990;28;20058;-88
2022/04/14 05:01:25;;;;;;;68.32;34.88;;;8.70;99.90;;;;;;5074430;28;20048;-89
2022/04/14 05:03:50;;;;;;;73.57;35.67;;;7.90;99.90;;;;;;5056404;28;20048;-89
2022/04/14 05:06:19;;;;;;;77.63;36.45;;;7.80;99.90;;;;;;5054709;28;20049;-89
2022/04/14 05:08:48;;;;;;;79.00;37.17;;;9.40;99.90;;;;;;5055543;28;20104;-88
2022/04/14 05:11:14;;;;;;;73.70;36.15;;;8.80;99.90;;;;;;5072475;28;20373;-89
2022/04/14 05:13:40;;;;;;;79.15;35.65;;;8.80;99.90;;;;;;5072455;28;20036;-89
2022/04/14 05:16:17;;;;;;;77.47;36.40;;;9.50;99.90;;;;;;5073115;28;20080;-89
2022/04/14 05:18:43;;;;;;;85.05;36.92;;;8.70;99.90;;;;;;5074678;28;20048;-88
2022/04/14 05:21:08;;;;;;;81.90;36.42;;;8.50;99.90;;;;;;5071947;28;20053;-89
2022/04/14 05:23:34;;;;;;;83.65;37.80;;;9.70;99.90;;;;;;5073027;28;20084;-89
2022/04/14 05:26:00;;;;;;;87.15;38.88;;;8.80;99.90;;;;;;5054478;28;20403;-89
2022/04/14 05:28:25;;;;;;;85.43;39.67;;;8.80;99.90;;;;;;5054163;28;20040;-89
2022/04/14 05:30:51;;;;;;;85.43;37.42;;;9.10;99.90;;;;;;5054530;28;20040;-89
2022/04/14 05:33:17;;;;;;;90.50;38.40;;;8.80;99.90;;;;;;5054905;28;20055;-89
2022/04/14 05:35:44;;;;;;;88.60;39.75;;;8.80;99.90;;;;;;5053653;28;20040;-89
2022/04/14 05:38:10;;;;;;;95.20;38.38;;;8.80;99.90;;;;;;5072637;28;20064;-89
2022/04/14 05:40:41;;;;;;;93.07;38.42;;;8.70;99.90;;;;;;5072840;28;20514;-89
2022/04/14 05:43:13;;;;;;;82.53;38.40;;;8.70;99.90;;;;;;5057970;28;20048;-89
2022/04/14 05:45:40;;;;;;;83.68;38.00;;;8.70;99.90;;;;;;5072497;28;20048;-89
2022/04/14 05:48:05;;;;;;;78.63;38.05;;;8.70;99.90;;;;;;5054330;28;20527;-89
2022/04/14 05:50:31;;;;;;;79.95;37.45;;;8.70;99.90;;;;;;5057186;28;20048;-89
2022/04/14 05:52:57;;;;;;;81.03;38.47;;;8.70;99.90;;;;;;5054666;28;20091;-89
2022/04/14 05:55:22;;;;;;;75.90;37.78;;;8.70;99.90;;;;;;5055150;28;20044;-94
2022/04/14 05:57:48;;;;;;;89.13;39.17;;;8.80;99.90;;;;;;5056489;28;20422;-94
2022/04/14 06:00:14;;;;;;;82.82;39.65;;;8.80;99.90;;;;;;5073638;28;20040;-93
2022/04/14 06:02:40;;;;;;;83.30;40.35;;;8.80;99.90;;;;;;5073285;28;20420;-94
2022/04/14 06:05:12;;;;;;;82.22;39.63;;;8.90;99.90;;;;;;5073618;28;20071;-94
2022/04/14 06:07:38;;;;;;;87.22;39.85;;;8.90;99.90;;;;;;5073189;28;20503;-94
2022/04/14 06:10:04;;;;;;;81.03;39.35;;;8.40;99.90;;;;;;5055127;28;20045;-95
2022/04/14 06:12:36;;;;;;;81.38;39.83;;;9.00;99.90;;;;;;5073430;28;20041;-95
2022/04/14 06:15:14;;;;;;;81.90;41.17;;;8.80;99.90;;;;;;5074453;28;20049;-95
2022/04/14 06:17:49;;;;;;;77.53;41.83;;;9.00;99.90;;;;;;5055405;28;20097;-94
2022/04/14 06:20:18;;;;;;;82.50;41.10;;;9.30;99.90;;;;;;5055898;28;20040;-95
2022/04/14 06:22:44;;;;;;;76.13;40.70;;;10.20;99.90;;;;;;5069979;28;20063;-95
2022/04/14 06:25:22;;;;;;;65.28;36.55;;;9.20;99.90;;;;;;5078270;28;20399;-95
2022/04/14 06:27:49;;;;;;;59.35;34.55;;;9.50;99.90;;;;;;5059835;28;20045;-96
2022/04/14 06:30:18;;;;;;;60.92;35.22;;;10.70;99.90;;;;;;5059650;28;20040;-96
2022/04/14 06:33:04;;;;;;;60.70;35.33;;;9.60;99.90;;;;;;5082077;28;20044;-96
2022/04/14 06:35:30;;;;;;;57.50;33.33;;;9.80;99.90;;;;;;5080395;28;20079;-88
2022/04/14 06:37:58;;;;;;;57.83;32.80;;;9.90;99.90;;;;;;5084985;28;20434;-94
2022/04/14 06:40:24;;;;;;;55.05;32.67;;;10.80;99.90;;;;;;5077875;28;20047;-93
2022/04/14 06:42:55;;;;;;;55.17;32.38;;;9.80;99.90;;;;;;5058918;28;20135;-94
2022/04/14 06:45:21;;;;;;;51.80;31.25;;;10.00;99.90;;;;;;5076310;28;20131;-95
2022/04/14 06:47:47;;;;;;;49.65;30.48;;;10.10;99.90;;;;;;5058539;28;20526;-94
2022/04/14 06:50:13;;;;;;;47.33;28.13;;;10.70;99.90;;;;;;5058722;28;20047;-94
2022/04/14 06:52:42;;;;;;;47.72;29.83;;;10.70;99.90;;;;;;5059952;28;20094;-95
2022/04/14 06:55:11;;;;;;;48.45;28.27;;;11.50;99.90;;;;;;5077544;28;20048;-92
2022/04/14 06:57:39;;;;;;;46.17;27.73;;;10.50;99.90;;;;;;5059896;28;20405;-95
2022/04/14 07:00:14;;;;;;;45.47;27.50;;;11.70;99.90;;;;;;5092128;28;20041;-93
2022/04/14 07:02:48;;;;;;;44.22;28.10;;;10.80;99.90;;;;;;5079147;28;20101;-95
2022/04/14 07:05:14;;;;;;;41.08;26.10;;;10.80;99.90;;;;;;5058973;28;20558;-96
2022/04/14 07:07:39;;;;;;;39.63;25.98;;;11.20;99.90;;;;;;5052694;28;20041;-94
2022/04/14 07:10:05;;;;;;;41.40;25.77;;;11.60;99.90;;;;;;5054277;28;20450;-93
2022/04/14 07:12:31;;;;;;;40.67;25.77;;;11.10;99.90;;;;;;5076254;28;20044;-91
2022/04/14 07:14:57;;;;;;;39.13;23.85;;;11.00;99.90;;;;;;5055499;28;20043;-90
2022/04/14 07:17:26;;;;;;;36.03;22.80;;;11.20;99.90;;;;;;5044430;28;20049;-93
2022/04/14 07:19:52;;;;;;;40.30;23.65;;;12.50;99.90;;;;;;5036514;28;20041;-93
2022/04/14 07:22:24;;;;;;;36.00;23.25;;;12.40;99.90;;;;;;5054799;28;20045;-90
2022/04/14 07:24:53;;;;;;;34.20;22.52;;;11.30;99.90;;;;;;5042916;28;20370;-91
2022/04/14 07:27:21;;;;;;;37.65;23.88;;;11.90;99.90;;;;;;5057770;28;20124;-91
2022/04/14 07:29:47;;;;;;;34.95;23.27;;;11.70;99.90;;;;;;5037036;28;20098;-92
2022/04/14 07:32:13;;;;;;;34.33;22.80;;;11.20;99.90;;;;;;5035840;28;20045;-90
2022/04/14 07:34:39;;;;;;;34.45;22.08;;;11.70;99.90;;;;;;5058012;28;20087;-91
2022/04/14 07:37:05;;;;;;;35.08;21.73;;;12.60;99.90;;;;;;5075885;28;20503;-90
2022/04/14 07:39:36;;;;;;;36.40;21.17;;;12.20;99.90;;;;;;5075690;28;20523;-96
2022/04/14 07:42:02;;;;;;;30.88;21.25;;;11.70;99.90;;;;;;5066560;28;20041;-96
2022/04/14 07:44:34;;;;;;;33.40;21.60;;;12.00;99.90;;;;;;5068043;28;20102;-88
2022/04/14 07:47:06;;;;;;;32.72;20.63;;;11.90;99.90;;;;;;5057383;28;20044;-91
2022/04/14 07:49:44;;;;;;;30.98;18.85;;;12.30;99.90;;;;;;5074821;28;20515;-92
2022/04/14 07:52:09;;;;;;;33.55;20.13;;;12.40;99.90;;;;;;5057122;28;20154;-92
2022/04/14 07:54:38;;;;;;;30.63;19.00;;;12.80;99.90;;;;;;5075581;28;20079;-91
2022/04/14 07:57:13;;;;;;;27.17;17.58;;;12.60;99.90;;;;;;5074839;28;20129;-91
2022/04/14 07:59:39;;;;;;;27.10;17.25;;;12.60;99.90;;;;;;5058373;28;20492;-92
2022/04/14 08:02:05;;;;;;;27.55;18.00;;;12.50;99.90;;;;;;5062911;28;20035;-91
2022/04/14 08:04:31;;;;;;;28.70;17.00;;;13.40;99.90;;;;;;5059084;28;20079;-93
2022/04/14 08:07:15;;;;;;;31.33;16.77;;;13.20;99.90;;;;;;5056220;28;20392;-92
2022/04/14 08:09:41;;;;;;;22.05;14.00;;;12.60;99.90;;;;;;5074161;28;20058;-92
2022/04/14 08:12:07;;;;;;;24.98;15.98;;;12.90;99.90;;;;;;5075040;28;20037;-91
2022/04/14 08:14:33;;;;;;;22.45;13.55;;;13.30;99.90;;;;;;5044732;23;20057;-91
2022/04/14 08:17:04;;;;;;;19.20;12.63;;;13.40;99.90;;;;;;5012044;28;20108;-92
2022/04/14 08:19:30;;;;;;;23.05;15.02;;;13.40;99.90;;;;;;5014222;28;20033;-92
2022/04/14 08:21:56;;;;;;;27.15;15.52;;;13.50;99.90;;;;;;5014396;28;20561;-90
2022/04/14 08:24:23;;;;;;;25.17;15.38;;;13.50;99.90;;;;;;5013293;28;20042;-91
2022/04/14 08:26:49;;;;;;;25.42;15.15;;;13.80;99.90;;;;;;5012660;28;20076;-90
2022/04/14 08:29:14;;;;;;;22.48;14.55;;;13.60;99.90;;;;;;5020976;28;20050;-91
2022/04/14 08:31:40;;;;;;;20.75;13.10;;;13.90;99.90;;;;;;5012284;28;20435;-90
2022/04/14 08:34:06;;;;;;;23.65;14.18;;;14.50;99.90;;;;;;5014261;28;20567;-91
2022/04/14 08:36:32;;;;;;;20.98;13.35;;;14.50;99.90;;;;;;5011846;28;20513;-90
2022/04/14 08:39:02;;;;;;;18.90;12.43;;;14.20;99.90;;;;;;5014032;28;20136;-91
2022/04/14 08:41:36;;;;;;;21.33;13.05;;;14.10;99.90;;;;;;5013514;28;20083;-91
2022/04/14 08:44:16;;;;;;;22.70;13.70;;;14.50;99.90;;;;;;5013011;28;20042;-92
2022/04/14 08:46:42;;;;;;;20.73;13.35;;;15.20;99.90;;;;;;5011697;28;20038;-91
2022/04/14 08:49:10;;;;;;;21.27;13.40;;;14.40;99.90;;;;;;5013235;28;20072;-91
2022/04/14 08:51:36;;;;;;;21.33;13.15;;;14.20;99.90;;;;;;5012775;28;20042;-90
2022/04/14 08:54:13;;;;;;;20.25;13.27;;;15.30;99.90;;;;;;5011378;28;20477;-91
2022/04/14 08:56:47;;;;;;;20.25;13.27;;;15.70;99.90;;;;;;5012317;28;20042;-90
2022/04/14 08:59:31;;;;;;;19.42;12.98;;;14.60;99.90;;;;;;5013329;28;20058;-91
2022/04/14 09:02:04;;;;;;;21.70;13.23;;;14.20;99.90;;;;;;5012125;28;20489;-91
2022/04/14 09:04:38;;;;;;;22.45;13.25;;;14.80;99.90;;;;;;5012492;28;20044;-91
2022/04/14 09:07:04;;;;;;;19.95;13.75;;;14.40;99.90;;;;;;5012709;28;20050;-91
2022/04/14 09:09:37;;;;;;;21.70;14.52;;;15.30;99.90;;;;;;5013572;28;20042;-92
2022/04/14 09:12:05;;;;;;;19.97;13.87;;;14.80;99.90;;;;;;5011903;28;20065;-93
2022/04/14 09:14:34;;;;;;;21.30;14.18;;;15.20;99.90;;;;;;5011341;28;20297;-93
2022/04/14 09:17:02;;;;;;;22.67;13.40;;;14.00;99.90;;;;;;5011319;28;20620;-88
2022/04/14 09:19:32;;;;;;;18.95;12.73;;;15.30;99.90;;;;;;5011002;28;20073;-87
2022/04/14 09:22:15;;;;;;;19.55;12.95;;;15.30;99.90;;;;;;5011957;28;20041;-93
2022/04/14 09:24:50;;;;;;;18.35;11.95;;;15.50;99.90;;;;;;5013183;28;20088;-88
2022/04/14 09:27:29;;;;;;;19.95;13.30;;;15.70;99.90;;;;;;5011410;28;20052;-88
2022/04/14 09:30:00;;;;;;;20.13;12.77;;;15.80;99.90;;;;;;5013887;28;20050;-88
2022/04/14 09:32:32;;;;;;;20.25;12.15;;;16.60;99.90;;;;;;5011286;28;20041;-88
2022/04/14 09:35:00;;;;;;;18.23;12.55;;;16.00;99.90;;;;;;5014239;28;20056;-88
2022/04/14 09:37:27;;;;;;;18.55;12.43;;;16.00;99.90;;;;;;5012261;28;20509;-88
2022/04/14 09:40:01;;;;;;;20.17;12.82;;;16.20;99.90;;;;;;5015293;28;20129;-90
2022/04/14 09:42:29;;;;;;;19.23;12.77;;;16.10;99.90;;;;;;5012975;28;20069;-90
2022/04/14 09:44:55;;;;;;;20.15;12.35;;;16.10;99.90;;;;;;5011265;28;20128;-89
2022/04/14 09:47:37;;;;;;;19.85;12.25;;;16.30;99.90;;;;;;5012328;28;20056;-90
2022/04/14 09:50:03;;;;;;;20.75;12.02;;;16.50;99.90;;;;;;5014051;28;20478;-89
2022/04/14 09:52:29;;;;;;;18.58;11.70;;;16.90;99.90;;;;;;5014158;28;20054;-90
2022/04/14 09:55:21;;;;;;;19.02;12.57;;;17.80;99.90;;;;;;5012329;28;20053;-92
2022/04/14 09:58:13;;;;;;;17.35;11.57;;;16.80;99.90;;;;;;5008787;28;20064;-91
2022/04/14 10:00:50;;;;;;;17.17;11.35;;;16.80;99.90;;;;;;5016386;28;20085;-90
2022/04/14 10:03:27;;;;;;;17.10;11.07;;;16.80;99.90;;;;;;5019377;28;20041;-91
2022/04/14 10:05:56;;;;;;;18.58;11.70;;;16.70;99.90;;;;;;5017055;28;20046;-91
2022/04/14 10:08:24;;;;;;;16.33;11.23;;;16.60;99.90;;;;;;5016237;28;20077;-92
2022/04/14 10:11:07;;;;;;;17.67;11.50;;;16.30;99.90;;;;;;5016548;28;20050;-94
2022/04/14 10:13:37;;;;;;;16.15;10.07;;;16.20;99.90;;;;;;5016582;28;20034;-88
2022/04/14 10:16:05;;;;;;;16.08;10.23;;;16.50;99.90;;;;;;5016025;28;20489;-93
2022/04/14 10:18:41;;;;;;;15.50;10.32;;;16.80;99.90;;;;;;5016509;28;20056;-94
2022/04/14 10:21:21;;;;;;;16.50;10.40;;;17.10;99.90;;;;;;5017159;28;20046;-93
2022/04/14 10:24:03;;;;;;;15.57;10.30;;;15.40;99.90;;;;;;5017009;28;20481;-93
2022/04/14 10:26:40;;;;;;;15.13;9.35;;;17.20;99.90;;;;;;5041425;28;20022;-91
2022/04/14 10:29:16;;;;;;;16.60;10.10;;;18.40;99.90;;;;;;5034424;28;20088;-90
2022/04/14 10:31:46;;;;;;;15.00;8.93;;;17.30;99.90;;;;;;5022090;28;20485;-90
2022/04/14 10:34:15;;;;;;;15.82;10.10;;;18.30;99.90;;;;;;5016125;28;20061;-90
2022/04/14 10:36:56;;;;;;;15.88;9.80;;;18.70;99.90;;;;;;5012387;28;20050;-92
2022/04/14 10:39:30;;;;;;;16.52;9.57;;;18.70;99.90;;;;;;5025090;28;20046;-90
2022/04/14 10:42:07;;;;;;;16.88;10.25;;;18.00;99.90;;;;;;5014753;28;20221;-92
2022/04/14 10:44:58;;;;;;;14.73;10.35;;;17.60;99.90;;;;;;5014404;28;20060;-91
2022/04/14 10:47:42;;;;;;;16.50;10.43;;;17.00;99.90;;;;;;5016094;28;20048;-91
2022/04/14 10:50:20;;;;;;;17.60;10.57;;;16.40;99.90;;;;;;5014651;28;20366;-90
2022/04/14 10:53:02;;;;;;;16.90;10.90;;;17.40;99.90;;;;;;5017391;28;20477;-91
2022/04/14 10:55:35;;;;;;;16.95;11.32;;;17.50;99.90;;;;;;5016818;28;20418;-91
2022/04/14 10:58:00;;;;;;;18.10;10.43;;;17.10;99.90;;;;;;5018601;28;20436;-92
2022/04/14 11:00:36;;;;;;;15.60;10.07;;;17.80;99.90;;;;;;5015134;28;20485;-92
2022/04/14 11:03:12;;;;;;;18.77;11.88;;;16.80;99.90;;;;;;5011958;28;20050;-89
2022/04/14 11:05:49;;;;;;;19.60;12.60;;;17.10;99.90;;;;;;5014521;28;20056;-89
2022/04/14 11:08:30;;;;;;;19.30;12.13;;;17.40;99.90;;;;;;5015487;28;20074;-89
2022/04/14 11:11:01;;;;;;;18.40;11.40;;;17.40;99.90;;;;;;5015521;28;20050;-89
2022/04/14 11:13:50;;;;;;;16.95;10.45;;;17.60;99.90;;;;;;5014649;28;20401;-89
2022/04/14 11:16:38;;;;;;;12.98;8.25;;;17.30;99.90;;;;;;4988506;28;20046;-88
2022/04/14 11:19:19;;;;;;;12.70;7.00;;;17.20;99.90;;;;;;4996076;28;20089;-88
2022/04/14 11:24:40;;;;;;;10.98;5.80;;;17.70;99.90;;;;;;4978519;28;20056;-89
2022/04/14 11:27:13;;;;;;;12.13;6.03;;;18.00;99.90;;;;;;4996903;28;20066;-88
2022/04/14 11:29:40;;;;;;;11.77;6.10;;;18.20;99.90;;;;;;4995491;28;20414;-88
2022/04/14 11:32:08;;;;;;;13.48;7.30;;;18.40;99.90;;;;;;4995933;28;20042;-88
2022/04/14 11:34:35;;;;;;;10.95;6.22;;;18.50;99.90;;;;;;4978246;28;20053;-88
2022/04/14 11:37:04;;;;;;;8.73;3.90;;;18.70;99.90;;;;;;4980264;28;20042;-89
2022/04/14 11:39:30;;;;;;;7.97;3.28;;;18.90;99.90;;;;;;4977978;28;20046;-88
2022/04/14 11:42:16;;;;;;;10.40;3.88;;;19.20;99.90;;;;;;4995821;28;20038;-89
2022/04/14 11:44:41;;;;;;;10.25;4.07;;;19.50;99.90;;;;;;4995864;28;20050;-89
2022/04/14 11:47:08;;;;;;;9.48;3.85;;;19.50;99.90;;;;;;4977181;28;20042;-90
2022/04/14 11:49:35;;;;;;;10.98;4.22;;;19.50;99.90;;;;;;4978391;28;20042;-89
2022/04/14 11:52:04;;;;;;;9.35;3.63;;;19.70;99.90;;;;;;4978280;28;20082;-89
2022/04/14 11:54:29;;;;;;;10.00;4.75;;;19.70;99.90;;;;;;4977587;28;20096;-88
2022/04/14 11:56:56;;;;;;;9.70;4.20;;;19.60;99.90;;;;;;4977539;28;20046;-88
2022/04/14 11:59:45;;;;;;;11.10;4.82;;;19.70;99.90;;;;;;4995292;28;20097;-89
2022/04/14 12:02:24;;;;;;;9.60;4.65;;;19.80;99.90;;;;;;4979639;28;20383;-89
2022/04/14 12:04:52;;;;;;;10.63;4.40;;;19.60;99.90;;;;;;4994923;28;20046;-88
2022/04/14 12:07:20;;;;;;;10.23;5.10;;;19.70;99.90;;;;;;4995449;28;20046;-90
2022/04/14 12:09:46;;;;;;;10.65;5.18;;;20.10;99.90;;;;;;4976660;28;20101;-89
2022/04/14 12:12:17;;;;;;;10.10;4.15;;;19.70;99.90;;;;;;4978258;28;20050;-89
2022/04/14 12:14:50;;;;;;;8.88;3.20;;;19.30;99.90;;;;;;4991726;28;20489;-89
2022/04/14 12:17:22;;;;;;;9.77;3.60;;;19.00;99.90;;;;;;5013790;28;20061;-88
2022/04/14 12:20:08;;;;;;;8.10;3.20;;;18.80;99.90;;;;;;5013685;28;20046;-88
2022/04/14 12:22:36;;;;;;;8.38;3.45;;;18.30;99.90;;;;;;5012570;28;20054;-89
2022/04/14 12:25:10;;;;;;;9.80;3.80;;;18.00;99.90;;;;;;5015677;28;20037;-88
2022/04/14 12:27:37;;;;;;;8.40;3.30;;;18.00;99.90;;;;;;5014193;28;20513;-89
2022/04/14 12:30:13;;;;;;;9.00;3.70;;;18.50;99.90;;;;;;5012396;28;20046;-89
2022/04/14 12:32:40;;;;;;;8.20;3.30;;;18.80;99.90;;;;;;5013036;28;20042;-88
2022/04/14 12:35:08;;;;;;;8.27;3.35;;;19.30;99.90;;;;;;5013366;28;20041;-89
2022/04/14 12:37:37;;;;;;;8.85;3.22;;;19.10;99.90;;;;;;5013578;28;20050;-88
2022/04/14 12:40:09;;;;;;;9.25;3.00;;;18.90;99.90;;;;;;5013964;28;20068;-88
2022/04/14 12:42:36;;;;;;;9.75;3.20;;;18.60;99.90;;;;;;5015101;28;20394;-88
2022/04/14 12:45:04;;;;;;;8.75;3.20;;;18.60;99.90;;;;;;5016277;22;20053;-88
2022/04/14 12:47:30;;;;;;;8.82;3.13;;;19.00;99.90;;;;;;4995146;28;20046;-89
2022/04/14 12:49:57;;;;;;;9.23;3.45;;;19.20;99.90;;;;;;4993162;28;20053;-88
2022/04/14 12:52:24;;;;;;;10.13;3.33;;;19.30;99.90;;;;;;4994867;28;20437;-88